Time;durP1;ratioP1;P1;durP2;ratioP2;P2;SDS_P1;SDS_P2;PMS_P1;PMS_P2;Temp;Humidity;BMP_temperature;BMP_pressure;BME280_temperature;BME280_humidity;BME280_pressure;Samples;Min_cycle;Max_cycle;Signal;HPM_P1;HPM_P2
2023/10/03 00:00:24;;;;;;;11.10;7.40;;;;;;;12.91;81.85;100515.75;133970;1300;22431;-72
2023/10/03 00:04:00;;;;;;;;;;;;;;;;;;;;;
2023/10/03 00:07:22;;;;;;;12.00;7.20;;;;;;;12.91;82.07;100514.98;133897;1297;22488;-71
2023/10/03 00:10:24;;;;;;;11.70;7.90;;;;;;;12.87;82.08;100511.23;133985;1300;22216;-72
2023/10/03 00:13:31;;;;;;;12.10;7.80;;;;;;;12.82;82.52;100508.23;133849;1298;22419;-71
2023/10/03 00:16:33;;;;;;;12.90;7.70;;;;;;;12.77;82.71;100505.91;134043;1297;22353;-72
2023/10/03 00:19:34;;;;;;;12.60;8.00;;;;;;;12.72;83.07;100507.09;134009;1297;22207;-72
2023/10/03 00:22:54;;;;;;;11.90;7.70;;;;;;;12.67;83.17;100498.59;133861;1297;22270;-71
2023/10/03 00:25:59;;;;;;;15.60;8.00;;;;;;;12.59;83.51;100493.59;133993;1297;22395;-71
2023/10/03 00:29:00;;;;;;;12.90;7.70;;;;;;;12.54;83.88;100483.60;133833;1297;22426;-71
2023/10/03 00:32:03;;;;;;;13.10;7.30;;;;;;;12.49;83.73;100478.66;133885;1297;22416;-72
2023/10/03 00:35:11;;;;;;;12.50;7.80;;;;;;;12.47;83.95;100478.61;134078;1299;22771;-71
2023/10/03 00:38:34;;;;;;;15.40;8.20;;;;;;;12.45;84.16;100478.62;133904;1297;23087;-71
2023/10/03 00:41:40;;;;;;;13.30;8.10;;;;;;;12.43;84.36;100474.79;133948;1297;22389;-71
2023/10/03 00:44:57;;;;;;;;;;;;;;;;;;;;;
2023/10/03 00:48:21;;;;;;;12.60;7.10;;;;;;;12.40;84.72;100471.94;133927;1299;22202;-72
2023/10/03 00:51:29;;;;;;;10.80;7.20;;;;;;;12.35;84.53;100470.73;133973;1294;22670;-71
2023/10/03 00:54:42;;;;;;;14.90;8.20;;;;;;;12.32;84.75;100466.96;134003;1297;22211;-72
2023/10/03 00:58:36;;;;;;;13.10;8.20;;;;;;;12.29;84.79;100464.21;134063;1297;23023;-71
2023/10/03 01:01:14;;;;;;;13.20;8.30;;;;;;;12.27;85.01;100458.13;133734;1297;22411;-72
2023/10/03 01:04:28;;;;;;;;;;;;;;;;;;;;;
2023/10/03 01:07:57;;;;;;;;;;;;;;;;;;;;;
2023/10/03 01:11:29;;;;;;;13.20;7.50;;;;;;;12.23;85.11;100446.30;133891;1297;22364;-71
2023/10/03 01:14:39;;;;;;;14.50;7.50;;;;;;;12.15;84.47;100444.54;134095;1297;23504;-71
2023/10/03 01:17:57;;;;;;;10.00;7.00;;;;;;;12.10;84.63;100441.13;134070;1297;22240;-71
2023/10/03 01:21:06;;;;;;;15.50;7.20;;;;;;;12.12;84.75;100439.40;133872;1300;22427;-71
2023/10/03 01:24:30;;;;;;;14.40;8.10;;;;;;;12.12;84.62;100437.81;134082;1304;22386;-71
2023/10/03 01:27:46;;;;;;;15.60;8.60;;;;;;;12.08;85.13;100430.70;134078;1299;22251;-71
2023/10/03 01:30:51;;;;;;;21.40;8.90;;;;;;;12.09;85.90;100425.08;134085;1300;22372;-71
2023/10/03 01:34:23;;;;;;;12.60;8.80;;;;;;;12.12;86.14;100423.24;134072;1297;22650;-71
2023/10/03 01:37:47;;;;;;;15.30;8.50;;;;;;;12.13;86.25;100422.94;134055;1300;23163;-71
2023/10/03 01:40:52;;;;;;;13.30;7.20;;;;;;;12.07;85.91;100425.05;133849;1297;22207;-71
2023/10/03 01:43:59;;;;;;;10.00;7.10;;;;;;;11.97;85.18;100423.96;133851;1298;23041;-71
2023/10/03 01:47:04;;;;;;;10.50;5.90;;;;;;;11.89;85.10;100424.89;134060;1301;23088;-71
2023/10/03 01:50:06;;;;;;;14.00;6.30;;;;;;;11.80;84.62;100421.02;133779;1297;22478;-71
2023/10/03 01:53:07;;;;;;;10.20;6.20;;;;;;;11.71;84.61;100417.38;133869;1300;22267;-71
2023/10/03 01:56:34;;;;;;;15.90;8.80;;;;;;;11.62;84.38;100415.02;133882;1297;22561;-70
2023/10/03 02:00:31;;;;;;;13.00;8.00;;;;;;;11.53;84.93;100412.95;133964;1297;22477;-70
2023/10/03 02:03:13;;;;;;;17.80;8.50;;;;;;;11.49;85.17;100412.45;134025;1300;22434;-71
2023/10/03 02:06:20;;;;;;;12.90;7.60;;;;;;;11.44;85.36;100410.22;133890;1297;22387;-71
2023/10/03 02:09:21;;;;;;;12.40;7.20;;;;;;;11.43;85.77;100406.01;133872;1300;22995;-72
2023/10/03 02:12:22;;;;;;;13.30;8.10;;;;;;;11.39;85.86;100400.10;133865;1301;22453;-71
2023/10/03 02:15:25;;;;;;;16.40;8.60;;;;;;;11.34;85.88;100399.13;134100;1297;22752;-71
2023/10/03 02:18:28;;;;;;;15.00;8.30;;;;;;;11.29;86.28;100396.44;133893;1305;22233;-70
2023/10/03 02:21:32;;;;;;;13.90;7.60;;;;;;;11.26;86.27;100396.90;134036;1297;22254;-71
2023/10/03 02:24:36;;;;;;;11.30;7.40;;;;;;;11.21;86.24;100393.89;134066;1304;22434;-71
2023/10/03 02:27:39;;;;;;;13.30;8.10;;;;;;;11.19;86.28;100391.47;134079;1297;23301;-71
2023/10/03 02:30:40;;;;;;;11.80;7.50;;;;;;;11.15;86.46;100383.56;134096;1298;22478;-71
2023/10/03 02:33:49;;;;;;;13.60;7.60;;;;;;;11.12;86.49;100383.03;134086;1297;23410;-70
2023/10/03 02:36:52;;;;;;;13.20;7.90;;;;;;;11.10;86.75;100375.59;134093;1294;22330;-71
2023/10/03 02:39:55;;;;;;;13.30;7.90;;;;;;;11.10;86.92;100369.02;134128;1301;22437;-71
2023/10/03 02:43:00;;;;;;;13.20;7.70;;;;;;;11.10;87.01;100365.87;134045;1298;22453;-71
2023/10/03 02:46:22;;;;;;;13.40;7.70;;;;;;;11.10;86.94;100352.72;133772;1304;22800;-71
2023/10/03 02:49:25;;;;;;;12.30;7.20;;;;;;;11.07;86.71;100345.78;133926;1303;23980;-71
2023/10/03 02:53:07;;;;;;;;;;;;;;;;;;;;;
2023/10/03 02:56:09;;;;;;;17.40;8.70;;;;;;;11.13;87.81;100342.67;134028;1301;22926;-71
2023/10/03 02:59:14;;;;;;;14.70;8.50;;;;;;;11.22;88.26;100339.42;133985;1304;22384;-71
2023/10/03 03:02:16;;;;;;;15.50;8.40;;;;;;;11.29;88.29;100339.39;134061;1297;22360;-71
2023/10/03 03:05:35;;;;;;;14.80;7.60;;;;;;;11.31;88.06;100329.62;134064;1298;23165;-70
2023/10/03 03:08:40;;;;;;;13.60;8.30;;;;;;;11.32;88.28;100325.84;133886;1300;22991;-71
2023/10/03 03:11:48;;;;;;;14.10;8.30;;;;;;;11.31;88.31;100323.61;133885;1300;23133;-71
2023/10/03 03:14:54;;;;;;;14.20;8.00;;;;;;;11.28;88.14;100323.55;133861;1298;22374;-71
2023/10/03 03:18:12;;;;;;;;;;;;;;;;;;;;;
2023/10/03 03:21:14;;;;;;;11.90;7.30;;;;;;;11.17;87.83;100321.88;134043;1303;23503;-70
2023/10/03 03:24:21;;;;;;;13.60;7.50;;;;;;;11.11;87.80;100316.54;134040;1298;22426;-71
2023/10/03 03:27:43;;;;;;;12.80;7.70;;;;;;;11.02;87.55;100311.46;134053;1303;22445;-71
2023/10/03 03:30:46;;;;;;;14.20;7.40;;;;;;;10.93;87.43;100309.29;133892;1300;22548;-70
2023/10/03 03:33:57;;;;;;;11.60;7.40;;;;;;;10.86;87.42;100306.36;134083;1297;22436;-71
2023/10/03 03:37:16;;;;;;;11.00;6.90;;;;;;;10.80;87.27;100311.55;133892;1297;22484;-71
2023/10/03 03:40:29;;;;;;;11.40;7.70;;;;;;;10.75;87.08;100312.08;133889;1297;22379;-71
2023/10/03 03:43:31;;;;;;;13.80;8.30;;;;;;;10.67;87.10;100305.36;134037;1298;22229;-71
2023/10/03 03:46:39;;;;;;;10.00;6.80;;;;;;;10.62;87.11;100302.86;134027;1300;22496;-70
2023/10/03 03:49:40;;;;;;;12.40;7.70;;;;;;;10.54;87.37;100301.42;133826;1304;22504;-71
2023/10/03 03:53:02;;;;;;;13.00;8.00;;;;;;;10.45;87.74;100296.73;134077;1299;23314;-71
2023/10/03 03:56:07;;;;;;;12.30;7.80;;;;;;;10.40;88.24;100291.44;133843;1304;22410;-71
2023/10/03 03:59:11;;;;;;;15.30;8.20;;;;;;;10.35;88.49;100289.82;134042;1297;22229;-70
2023/10/03 04:02:26;;;;;;;11.00;8.20;;;;;;;10.30;88.41;100289.72;134030;1298;22628;-71
2023/10/03 04:05:33;;;;;;;14.70;8.50;;;;;;;10.28;88.53;100288.41;134040;1298;22460;-70
2023/10/03 04:08:55;;;;;;;12.20;7.80;;;;;;;10.28;89.01;100284.27;134034;1297;22233;-71
2023/10/03 04:11:59;;;;;;;14.80;8.60;;;;;;;10.33;89.31;100280.96;134053;1304;23196;-71
2023/10/03 04:14:59;;;;;;;;;;;;;;;10.36;89.43;100280.12;134044;1304;23211;-70
2023/10/03 04:18:03;;;;;;;13.90;8.90;;;;;;;10.36;89.58;100278.02;134019;1301;22276;-71
2023/10/03 04:21:50;;;;;;;16.10;8.70;;;;;;;10.40;89.60;100278.14;134050;1298;22278;-70
2023/10/03 04:24:55;;;;;;;16.10;8.80;;;;;;;10.42;89.00;100276.73;134061;1297;22377;-71
2023/10/03 04:28:22;;;;;;;15.60;9.20;;;;;;;10.40;88.73;100271.95;133902;1298;22437;-71
2023/10/03 04:31:26;;;;;;;15.00;8.40;;;;;;;10.38;88.75;100267.59;134036;1297;23015;-70
2023/10/03 04:34:27;;;;;;;16.60;9.40;;;;;;;10.30;88.72;100263.33;134047;1298;22436;-71
2023/10/03 04:37:34;;;;;;;17.40;8.50;;;;;;;10.30;89.11;100261.97;133982;1301;23257;-71
2023/10/03 04:40:37;;;;;;;17.10;9.20;;;;;;;10.33;89.75;100260.09;134014;1298;22439;-71
2023/10/03 04:43:39;;;;;;;14.10;8.90;;;;;;;10.36;89.96;100253.77;134018;1299;22379;-72
2023/10/03 04:46:49;;;;;;;16.80;9.90;;;;;;;10.40;90.12;100251.81;134098;1304;22376;-72
2023/10/03 04:50:08;;;;;;;18.20;10.10;;;;;;;10.44;90.33;100252.20;134016;1300;23143;-72
2023/10/03 04:53:32;;;;;;;12.60;8.90;;;;;;;10.45;90.17;100243.08;133968;1298;23351;-71
2023/10/03 04:56:38;;;;;;;16.80;9.10;;;;;;;10.47;90.22;100243.60;133962;1304;23317;-71
2023/10/03 04:59:40;;;;;;;14.20;9.30;;;;;;;10.49;90.14;100240.23;133973;1303;22384;-71
2023/10/03 05:03:22;;;;;;;13.80;8.70;;;;;;;10.49;90.21;100239.63;133986;1299;22232;-71
2023/10/03 05:06:42;;;;;;;14.90;8.70;;;;;;;10.52;90.46;100236.63;133984;1305;22399;-72
2023/10/03 05:10:08;;;;;;;17.70;9.70;;;;;;;10.55;90.56;100231.61;133780;1305;22784;-71
2023/10/03 05:13:19;;;;;;;17.00;10.00;;;;;;;10.60;90.99;100225.41;133971;1304;23291;-71
2023/10/03 05:16:40;;;;;;;14.40;9.50;;;;;;;10.67;90.96;100220.59;133903;1304;22430;-71
2023/10/03 05:19:42;;;;;;;17.40;9.70;;;;;;;10.82;91.13;100219.09;134000;1300;22455;-72
2023/10/03 05:22:50;;;;;;;17.50;9.60;;;;;;;11.08;91.54;100222.66;133812;1296;22403;-72
2023/10/03 05:26:11;;;;;;;14.70;9.70;;;;;;;11.33;91.53;100220.31;134015;1300;23714;-71
2023/10/03 05:29:26;;;;;;;;;;;;;;;;;;;;;
2023/10/03 05:33:10;;;;;;;12.90;8.40;;;;;;;11.97;91.30;100205.70;134068;1297;22488;-73
2023/10/03 05:36:25;;;;;;;13.10;8.60;;;;;;;12.42;91.27;100202.39;134005;1299;22351;-73
2023/10/03 05:39:31;;;;;;;15.40;8.20;;;;;;;12.93;90.99;100196.11;134037;1297;22430;-74
2023/10/03 05:43:00;;;;;;;;;;;;;;;;;;;;;
2023/10/03 05:46:12;;;;;;;17.70;8.40;;;;;;;13.92;89.51;100193.65;133948;1297;22386;-74
2023/10/03 05:49:24;;;;;;;;;;;;;;;;;;;;;
2023/10/03 05:52:28;;;;;;;14.50;7.40;;;;;;;14.63;87.64;100185.48;133934;1298;22402;-75
2023/10/03 05:55:28;;;;;;;11.80;7.10;;;;;;;15.05;87.50;100185.26;133902;1285;22404;-75
2023/10/03 05:58:35;;;;;;;11.50;7.50;;;;;;;15.65;87.25;100186.05;133855;1301;22520;-75
2023/10/03 06:01:40;;;;;;;14.70;6.80;;;;;;;16.22;86.43;100185.16;133710;1304;22413;-74
2023/10/03 06:04:45;;;;;;;16.30;7.50;;;;;;;16.76;85.30;100180.16;134062;1297;23020;-74
2023/10/03 06:07:51;;;;;;;12.90;7.60;;;;;;;17.20;83.36;100177.98;134007;1304;22468;-74
2023/10/03 06:10:57;;;;;;;13.50;7.10;;;;;;;17.54;82.52;100176.41;133879;1303;22474;-76
2023/10/03 06:14:12;;;;;;;12.00;6.80;;;;;;;17.99;81.65;100174.63;134021;1298;22445;-75
2023/10/03 06:17:15;;;;;;;11.50;6.30;;;;;;;18.46;81.19;100176.67;133976;1301;23256;-74
2023/10/03 06:20:26;;;;;;;14.30;6.50;;;;;;;19.02;80.04;100179.06;134040;1300;22562;-73
2023/10/03 06:23:37;;;;;;;10.00;7.00;;;;;;;19.45;78.59;100174.05;134048;1302;22949;-74
2023/10/03 06:26:38;;;;;;;16.40;7.80;;;;;;;19.82;77.02;100172.16;133913;1303;22379;-73
2023/10/03 06:29:55;;;;;;;12.30;6.60;;;;;;;19.99;75.43;100163.88;133980;1304;22378;-76
2023/10/03 06:32:59;;;;;;;12.40;7.10;;;;;;;20.09;74.77;100162.47;134002;1298;22299;-75
2023/10/03 06:36:15;;;;;;;13.80;6.90;;;;;;;20.34;74.11;100167.45;134006;1304;22623;-78
2023/10/03 06:39:39;;;;;;;10.50;6.20;;;;;;;20.60;73.06;100160.95;134029;1304;23025;-75
2023/10/03 06:42:40;;;;;;;13.10;7.20;;;;;;;20.92;72.55;100164.26;134009;1298;22397;-76
2023/10/03 06:46:15;;;;;;;;;;;;;;;;;;;;;
2023/10/03 06:49:17;;;;;;;10.20;6.40;;;;;;;21.11;69.70;100160.67;134037;1301;22409;-75
2023/10/03 06:52:44;;;;;;;13.50;7.00;;;;;;;21.20;69.68;100158.17;133984;1304;22509;-75
2023/10/03 06:56:05;;;;;;;13.70;6.30;;;;;;;21.46;68.70;100146.98;132039;1299;22897;-75
2023/10/03 06:59:15;;;;;;;10.40;6.30;;;;;;;21.66;68.27;100140.17;133972;1299;22316;-76
2023/10/03 07:02:25;;;;;;;9.40;6.00;;;;;;;21.88;67.81;100135.77;134054;1302;22223;-73
2023/10/03 07:05:26;;;;;;;11.10;6.80;;;;;;;22.21;67.73;100140.27;134018;1301;22413;-74
2023/10/03 07:08:48;;;;;;;10.90;6.40;;;;;;;22.54;66.02;100145.66;133998;1297;22370;-75
2023/10/03 07:12:14;;;;;;;11.60;6.90;;;;;;;22.70;65.37;100140.52;134041;1304;22569;-75
2023/10/03 07:15:43;;;;;;;10.90;7.10;;;;;;;22.76;64.23;100138.79;134070;1299;23148;-75
2023/10/03 07:19:15;;;;;;;10.60;6.60;;;;;;;22.62;62.61;100139.52;134009;1299;22382;-74
2023/10/03 07:22:20;;;;;;;10.90;6.90;;;;;;;22.45;63.12;100136.32;133926;1298;22370;-76
2023/10/03 07:26:10;;;;;;;12.70;6.80;;;;;;;22.47;61.70;100134.41;133872;1300;22438;-75
2023/10/03 07:29:11;;;;;;;13.10;7.30;;;;;;;22.29;61.00;100134.86;133775;1299;22605;-77
2023/10/03 07:32:35;;;;;;;;;;;;;;;;;;;;;
2023/10/03 07:36:17;;;;;;;13.60;7.10;;;;;;;22.12;61.02;100127.02;133900;1298;22495;-76
2023/10/03 07:39:26;;;;;;;14.40;7.70;;;;;;;22.18;60.94;100124.77;134018;1304;22254;-75
2023/10/03 07:42:38;;;;;;;13.30;7.30;;;;;;;22.29;60.32;100121.89;134019;1304;22267;-76
2023/10/03 07:45:51;;;;;;;;;;;;;;;;;;;;;
2023/10/03 07:49:23;;;;;;;12.60;7.30;;;;;;;22.45;60.06;100121.29;134025;1304;22234;-74
2023/10/03 07:52:34;;;;;;;12.90;7.00;;;;;;;22.64;60.11;100117.39;134021;1298;22395;-76
2023/10/03 07:55:35;;;;;;;13.60;7.90;;;;;;;22.75;59.14;100112.14;133903;1303;22422;-76
2023/10/03 07:58:53;;;;;;;11.60;7.60;;;;;;;22.75;58.55;100107.29;133893;1298;22390;-75
2023/10/03 08:01:57;;;;;;;14.30;8.00;;;;;;;22.64;58.30;100106.78;133836;1300;23233;-75
2023/10/03 08:05:00;;;;;;;13.00;7.70;;;;;;;22.72;58.78;100111.88;133885;1303;22361;-75
2023/10/03 08:08:20;;;;;;;15.80;8.00;;;;;;;22.87;58.40;100107.40;133798;1300;22481;-73
2023/10/03 08:11:31;;;;;;;11.90;7.80;;;;;;;23.09;57.75;100098.80;133847;1303;22260;-74
2023/10/03 08:14:39;;;;;;;16.30;8.50;;;;;;;23.22;58.15;100093.41;133815;1304;23217;-75
2023/10/03 08:17:54;;;;;;;;;;;;;;;;;;;;;
2023/10/03 08:21:04;;;;;;;16.20;8.20;;;;;;;23.73;57.09;100083.54;133652;1289;22958;-74
2023/10/03 08:24:14;;;;;;;12.30;8.30;;;;;;;23.78;56.21;100077.52;133925;1304;22505;-75
2023/10/03 08:27:46;;;;;;;;;;;;;;;;;;;;;
2023/10/03 08:30:50;;;;;;;14.30;8.50;;;;;;;23.91;55.56;100090.23;133835;1301;23045;-74
2023/10/03 08:34:48;;;;;;;16.20;7.00;;;;;;;24.05;55.35;100089.51;133928;1304;22980;-74
2023/10/03 08:37:38;;;;;;;11.80;7.10;;;;;;;24.39;55.37;100084.99;133790;1298;23135;-75
2023/10/03 08:40:56;;;;;;;12.80;7.40;;;;;;;24.51;53.95;100082.61;133903;1296;22450;-75
2023/10/03 08:44:12;;;;;;;13.10;8.10;;;;;;;24.70;54.71;100079.49;133985;1299;22459;-74
2023/10/03 08:47:47;;;;;;;;;;;;;;;;;;;;;
2023/10/03 08:50:57;;;;;;;14.50;8.20;;;;;;;25.08;53.48;100073.05;133969;1299;22215;-74
2023/10/03 08:54:22;;;;;;;17.80;8.00;;;;;;;25.23;52.77;100065.70;133934;1300;22163;-75
2023/10/03 08:57:52;;;;;;;;;;;;;;;;;;;;;
2023/10/03 09:01:19;;;;;;;16.40;8.60;;;;;;;25.17;51.92;100053.77;133933;1299;22366;-76
2023/10/03 09:04:38;;;;;;;18.80;8.10;;;;;;;25.30;51.82;100044.61;133920;1298;22804;-78
2023/10/03 09:08:09;;;;;;;;;;;;;;;;;;;;;
2023/10/03 09:11:18;;;;;;;14.80;8.00;;;;;;;25.83;51.51;100031.19;133900;1304;22565;-77
2023/10/03 09:14:36;;;;;;;12.50;7.40;;;;;;;25.85;51.04;100025.43;133912;1299;22472;-75
2023/10/03 09:17:40;;;;;;;14.40;8.30;;;;;;;25.83;50.91;100027.04;133551;1299;23618;-76
2023/10/03 09:21:08;;;;;;;12.60;7.40;;;;;;;25.98;51.39;100022.61;133893;1300;22404;-77
2023/10/03 09:24:15;;;;;;;15.30;8.10;;;;;;;26.25;51.30;100021.09;133931;1297;22423;-75
2023/10/03 09:27:22;;;;;;;26.70;9.40;;;;;;;26.29;50.16;100022.34;133875;1304;22421;-75
2023/10/03 09:30:27;;;;;;;13.40;7.90;;;;;;;26.25;50.09;100011.90;133924;1298;22447;-75
2023/10/03 09:34:01;;;;;;;13.80;8.60;;;;;;;26.39;50.28;100008.79;133917;1297;22458;-76
2023/10/03 09:37:03;;;;;;;11.60;7.40;;;;;;;26.42;49.66;100000.98;133908;1297;22471;-77
2023/10/03 09:40:16;;;;;;;16.50;8.20;;;;;;;26.35;49.43;100002.58;133954;1297;23249;-74
2023/10/03 09:43:49;;;;;;;;;;;;;;;;;;;;;
2023/10/03 09:46:53;;;;;;;13.20;8.30;;;;;;;26.13;49.14;99991.93;133904;1290;22394;-76
2023/10/03 09:50:05;;;;;;;14.00;7.80;;;;;;;26.18;49.69;99985.25;133809;1301;22382;-75
2023/10/03 09:53:18;;;;;;;14.40;7.80;;;;;;;26.29;49.46;99982.73;133971;1297;22451;-77
2023/10/03 09:56:22;;;;;;;17.50;8.30;;;;;;;26.34;49.46;99983.34;133958;1297;22423;-76
2023/10/03 09:59:30;;;;;;;14.10;7.80;;;;;;;26.38;49.31;99982.02;133909;1297;22395;-77
2023/10/03 10:02:37;;;;;;;16.40;7.70;;;;;;;26.32;49.30;99979.90;133992;1298;22352;-78
2023/10/03 10:05:55;;;;;;;14.20;7.70;;;;;;;26.39;49.71;99978.92;133898;1300;23030;-74
2023/10/03 10:09:28;;;;;;;15.30;8.10;;;;;;;26.54;49.63;99974.05;133798;1300;22354;-76
2023/10/03 10:12:29;;;;;;;11.90;6.90;;;;;;;26.73;49.21;99973.09;133833;1298;23115;-76
2023/10/03 10:15:30;;;;;;;12.60;7.10;;;;;;;26.74;48.90;99966.45;133868;1298;22272;-77
2023/10/03 10:18:44;;;;;;;14.90;7.40;;;;;;;26.81;48.63;99965.23;133885;1302;22222;-77
2023/10/03 10:21:59;;;;;;;11.50;7.30;;;;;;;26.85;48.56;99961.62;133960;1299;22428;-79
2023/10/03 10:25:40;;;;;;;12.20;7.50;;;;;;;26.97;48.73;99951.55;133733;1299;23304;-76
2023/10/03 10:28:45;;;;;;;10.80;7.40;;;;;;;27.02;48.19;99945.59;133802;1299;22508;-75
2023/10/03 10:31:57;;;;;;;9.50;7.20;;;;;;;27.16;48.41;99940.96;133907;1300;22256;-76
2023/10/03 10:35:33;;;;;;;;;;;;;;;;;;;;;
2023/10/03 10:39:05;;;;;;;13.90;7.30;;;;;;;27.54;47.85;99936.14;133898;1297;23155;-75
2023/10/03 10:42:14;;;;;;;16.10;7.80;;;;;;;27.64;47.68;99934.92;134031;1297;22267;-77
2023/10/03 10:45:44;;;;;;;16.60;7.50;;;;;;;27.67;47.09;99930.81;133836;1297;22983;-76
2023/10/03 10:49:03;;;;;;;11.80;7.60;;;;;;;27.70;47.02;99921.42;133891;1297;22404;-74
2023/10/03 10:52:49;;;;;;;16.20;7.60;;;;;;;27.78;46.72;99911.12;133921;1297;23213;-73
2023/10/03 10:56:14;;;;;;;14.40;7.50;;;;;;;27.84;44.84;99901.65;133987;1297;22295;-74
2023/10/03 10:59:18;;;;;;;13.50;8.80;;;;;;;27.48;44.54;99900.27;133995;1298;23658;-76
2023/10/03 11:02:30;;;;;;;18.90;7.50;;;;;;;27.45;43.99;99893.39;134071;1297;23233;-74
2023/10/03 11:05:48;;;;;;;12.40;7.60;;;;;;;27.69;43.56;99885.46;133873;1300;22369;-74
2023/10/03 11:08:52;;;;;;;16.40;7.80;;;;;;;27.90;43.17;99884.59;133976;1298;22192;-76
2023/10/03 11:12:02;;;;;;;13.40;7.70;;;;;;;28.01;42.62;99880.48;133972;1283;22617;-76
2023/10/03 11:15:18;;;;;;;12.00;7.40;;;;;;;27.91;41.92;99878.30;134006;1299;22254;-80
2023/10/03 11:18:33;;;;;;;11.00;6.50;;;;;;;28.08;42.14;99870.39;133986;1298;22242;-77
2023/10/03 11:21:37;;;;;;;12.90;6.90;;;;;;;28.34;41.86;99862.52;134016;1298;23098;-75
2023/10/03 11:24:42;;;;;;;13.00;6.30;;;;;;;28.58;41.53;99855.65;133977;1298;23525;-77
2023/10/03 11:27:51;;;;;;;10.70;6.50;;;;;;;28.68;40.43;99848.58;133867;1298;22445;-74
2023/10/03 11:31:02;;;;;;;11.30;6.50;;;;;;;28.78;40.90;99848.33;134012;1297;23194;-76
2023/10/03 11:34:09;;;;;;;11.40;6.50;;;;;;;28.87;40.66;99842.48;133998;1297;23198;-75
2023/10/03 11:37:30;;;;;;;12.50;6.60;;;;;;;28.89;40.67;99834.76;133969;1298;22425;-76
2023/10/03 11:40:34;;;;;;;15.10;7.00;;;;;;;28.90;40.37;99832.99;133987;1297;22527;-75
2023/10/03 11:43:46;;;;;;;14.10;7.00;;;;;;;28.91;39.45;99829.80;133989;1294;22418;-75
2023/10/03 11:47:18;;;;;;;;;;;;;;;;;;;;;
2023/10/03 11:50:36;;;;;;;13.70;7.00;;;;;;;28.77;39.24;99822.64;133901;1298;23278;-75
2023/10/03 11:53:54;;;;;;;12.80;6.80;;;;;;;28.76;39.38;99818.88;133703;1298;22250;-74
2023/10/03 11:57:04;;;;;;;15.50;7.00;;;;;;;28.63;38.71;99816.21;134002;1298;22379;-75
2023/10/03 12:00:44;;;;;;;14.70;7.50;;;;;;;28.42;39.05;99810.73;133974;1297;23054;-74
2023/10/03 12:04:03;;;;;;;14.90;7.40;;;;;;;28.39;39.57;99808.16;133969;1300;22450;-78
2023/10/03 12:07:26;;;;;;;15.10;8.00;;;;;;;28.26;39.54;99807.23;133976;1297;23082;-78
2023/10/03 12:10:40;;;;;;;13.60;7.40;;;;;;;28.12;39.98;99804.39;133755;1301;23163;-75
2023/10/03 12:13:49;;;;;;;10.30;7.20;;;;;;;28.15;40.11;99798.80;133843;1298;22495;-76
2023/10/03 12:16:54;;;;;;;17.40;7.20;;;;;;;28.24;39.94;99791.16;134049;1300;22194;-74
2023/10/03 12:19:58;;;;;;;14.10;6.90;;;;;;;28.19;39.82;99780.70;133976;1300;22475;-79
2023/10/03 12:23:15;;;;;;;13.40;7.50;;;;;;;28.10;40.20;99775.35;133999;1298;22416;-73
2023/10/03 12:26:22;;;;;;;14.00;7.30;;;;;;;27.98;39.96;99772.52;134020;1297;23321;-73
2023/10/03 12:29:38;;;;;;;16.40;7.60;;;;;;;27.84;40.06;99769.21;134012;1297;22389;-73
2023/10/03 12:32:49;;;;;;;12.40;7.70;;;;;;;27.67;40.26;99765.88;133984;1300;22224;-73
2023/10/03 12:35:50;;;;;;;11.20;6.90;;;;;;;27.57;40.52;99759.34;133865;1297;22465;-74
2023/10/03 12:38:59;;;;;;;11.30;6.60;;;;;;;27.56;40.68;99760.01;134035;1297;22463;-73
2023/10/03 12:42:06;;;;;;;12.80;7.40;;;;;;;27.52;41.00;99762.78;134036;1297;22579;-74
2023/10/03 12:45:20;;;;;;;13.60;7.00;;;;;;;27.44;40.96;99762.14;134077;1298;23159;-73
2023/10/03 12:48:24;;;;;;;14.60;7.10;;;;;;;27.26;41.03;99764.75;133876;1304;22485;-73
2023/10/03 12:51:24;;;;;;;13.90;6.40;;;;;;;27.18;41.53;99762.00;134035;1297;23062;-73
2023/10/03 12:54:29;;;;;;;17.60;7.00;;;;;;;27.18;41.75;99769.17;134036;1298;23200;-72
2023/10/03 12:57:32;;;;;;;16.00;7.90;;;;;;;27.13;41.82;99763.64;133925;1304;22993;-72
2023/10/03 13:00:48;;;;;;;19.70;7.10;;;;;;;27.08;42.07;99757.52;133892;1300;21756;-73
2023/10/03 13:03:57;;;;;;;17.00;7.60;;;;;;;27.02;42.37;99755.55;133922;1297;22471;-74
2023/10/03 13:07:12;;;;;;;12.80;7.80;;;;;;;26.97;42.44;99752.12;133870;1290;22476;-73
2023/10/03 13:10:26;;;;;;;16.00;7.60;;;;;;;26.76;42.62;99754.06;133934;1298;22453;-73
2023/10/03 13:13:31;;;;;;;16.10;8.20;;;;;;;26.48;43.03;99753.23;133833;1297;22523;-73
2023/10/03 13:16:34;;;;;;;13.00;7.20;;;;;;;26.20;43.55;99748.20;133915;1297;22387;-73
2023/10/03 13:19:47;;;;;;;13.50;6.90;;;;;;;25.97;44.20;99748.09;133860;1297;22494;-73
2023/10/03 13:22:48;;;;;;;12.60;8.20;;;;;;;25.79;44.72;99746.98;133815;1297;22290;-73
2023/10/03 13:25:50;;;;;;;16.10;7.40;;;;;;;25.70;45.19;99749.98;133855;1300;23005;-73
2023/10/03 13:28:52;;;;;;;14.90;8.20;;;;;;;25.65;45.56;99755.60;133885;1300;22235;-72
2023/10/03 13:31:55;;;;;;;15.30;8.60;;;;;;;25.62;45.85;99755.39;133913;1294;22454;-74
2023/10/03 13:34:57;;;;;;;14.80;8.10;;;;;;;25.59;46.15;99753.92;134007;1300;22395;-74
2023/10/03 13:38:00;;;;;;;15.40;7.90;;;;;;;25.56;46.28;99755.77;133904;1297;22473;-72
2023/10/03 13:41:04;;;;;;;13.40;7.90;;;;;;;25.52;46.30;99751.44;133937;1299;22416;-74
2023/10/03 13:44:15;;;;;;;13.00;7.60;;;;;;;25.49;46.39;99756.07;133807;1297;22380;-74
2023/10/03 13:47:30;;;;;;;;;;;;;;;;;;;;;
2023/10/03 13:50:57;;;;;;;15.80;8.30;;;;;;;25.53;46.42;99755.02;133902;1298;22262;-74
2023/10/03 13:54:10;;;;;;;15.20;7.80;;;;;;;25.48;46.58;99745.30;133853;1297;22468;-73
2023/10/03 13:57:23;;;;;;;13.70;8.40;;;;;;;25.53;46.64;99746.61;133989;1300;22299;-73
2023/10/03 14:00:48;;;;;;;20.40;8.60;;;;;;;25.68;46.72;99739.61;133903;1300;22382;-74
2023/10/03 14:04:12;;;;;;;15.60;8.20;;;;;;;25.81;46.45;99738.65;134044;1297;22511;-74
2023/10/03 14:07:15;;;;;;;16.10;9.20;;;;;;;25.84;46.45;99734.10;134038;1298;23122;-74
2023/10/03 14:10:22;;;;;;;16.90;9.30;;;;;;;25.85;46.65;99731.17;134016;1301;23044;-75
2023/10/03 14:13:28;;;;;;;16.60;9.00;;;;;;;25.84;46.62;99735.80;134039;1297;22187;-73
2023/10/03 14:16:39;;;;;;;18.60;8.50;;;;;;;25.84;46.72;99729.81;134030;1297;22391;-73
2023/10/03 14:19:59;;;;;;;13.30;8.80;;;;;;;25.79;46.62;99732.73;134002;1297;23333;-74
2023/10/03 14:23:00;;;;;;;15.20;9.00;;;;;;;25.67;46.83;99728.80;133879;1300;22403;-72
2023/10/03 14:26:13;;;;;;;17.90;9.20;;;;;;;25.58;47.21;99719.70;134047;1303;22396;-74
2023/10/03 14:29:23;;;;;;;;;;;;;;;25.50;47.44;99715.10;134052;1304;22502;-74
2023/10/03 14:32:27;;;;;;;15.50;9.00;;;;;;;25.37;47.60;99717.63;134032;1304;22231;-74
2023/10/03 14:35:39;;;;;;;22.20;9.80;;;;;;;25.25;47.75;99720.36;133987;1297;23181;-73
2023/10/03 14:38:40;;;;;;;17.80;9.80;;;;;;;25.08;47.94;99719.16;134007;1297;23599;-74
2023/10/03 14:41:42;;;;;;;19.40;10.00;;;;;;;24.91;48.07;99719.64;134049;1298;22281;-74
2023/10/03 14:44:48;;;;;;;15.50;8.90;;;;;;;24.77;48.35;99725.55;134053;1297;23572;-73
2023/10/03 14:47:49;;;;;;;19.70;9.00;;;;;;;24.65;48.64;99725.80;133956;1297;23379;-73
2023/10/03 14:50:57;;;;;;;16.90;9.10;;;;;;;24.53;48.78;99726.98;133986;1301;22212;-73
2023/10/03 14:54:03;;;;;;;17.80;10.20;;;;;;;24.42;49.09;99721.02;134041;1297;22484;-74
2023/10/03 14:57:06;;;;;;;17.90;8.70;;;;;;;24.32;49.39;99718.27;134043;1293;22288;-73
2023/10/03 15:00:17;;;;;;;16.70;9.10;;;;;;;24.27;49.65;99721.23;134010;1297;22454;-74
2023/10/03 15:03:23;;;;;;;24.00;9.60;;;;;;;24.22;49.75;99724.15;133804;1289;22351;-73
2023/10/03 15:06:27;;;;;;;20.70;9.30;;;;;;;24.17;49.87;99719.27;134009;1297;22443;-73
2023/10/03 15:09:31;;;;;;;16.10;8.90;;;;;;;24.13;50.05;99720.05;134018;1297;23408;-73
2023/10/03 15:12:48;;;;;;;13.90;9.10;;;;;;;24.10;50.29;99719.79;134045;1297;22387;-74